Time;durP1;ratioP1;P1;durP2;ratioP2;P2;SDS_P1;SDS_P2;PMS_P1;PMS_P2;Temp;Humidity;BMP_temperature;BMP_pressure;BME280_temperature;BME280_humidity;BME280_pressure;Samples;Min_cycle;Max_cycle;Signal;HPM_P1;HPM_P2
2021/06/24 00:01:14;;;;;;;;;7.00;6.00;;;;;;;;3557947;39;113747;-77
2021/06/24 00:03:41;;;;;;;;;6.00;6.00;;;;;;;;3555968;39;113952;-78
2021/06/24 00:06:07;;;;;;;;;7.00;7.00;;;;;;;;3555926;39;111974;-78
2021/06/24 00:08:34;;;;;;;;;7.67;7.67;;;;;;;;3558375;39;113230;-79
2021/06/24 00:11:02;;;;;;;;;8.33;6.00;;;;;;;;3559109;39;113785;-76
2021/06/24 00:13:29;;;;;;;;;9.00;7.00;;;;;;;;3558856;39;111694;-77
2021/06/24 00:15:56;;;;;;;;;6.00;6.00;;;;;;;;3559194;39;113325;-78
2021/06/24 00:18:24;;;;;;;;;7.67;7.33;;;;;;;;3558808;39;113828;-78
2021/06/24 00:20:51;;;;;;;;;5.00;5.00;;;;;;;;3561774;39;111989;-78
2021/06/24 00:23:18;;;;;;;;;5.00;5.00;;;;;;;;3559438;39;114273;-77
2021/06/24 00:25:44;;;;;;;;;6.00;6.00;;;;;;;;3558498;39;111822;-78
2021/06/24 00:28:15;;;;;;;;;6.33;5.33;;;;;;;;3560225;39;113201;-78
2021/06/24 00:30:41;;;;;;;;;6.67;6.67;;;;;;;;3556137;39;114103;-79
2021/06/24 00:33:08;;;;;;;;;6.33;5.00;;;;;;;;3556324;39;112226;-78
2021/06/24 00:35:36;;;;;;;;;5.00;5.00;;;;;;;;3559716;39;113576;-77
2021/06/24 00:38:04;;;;;;;;;6.33;5.67;;;;;;;;3557455;39;113941;-79
2021/06/24 00:40:33;;;;;;;;;8.67;8.00;;;;;;;;3559567;39;111840;-77
2021/06/24 00:43:00;;;;;;;;;7.33;7.00;;;;;;;;3560780;39;113253;-77
2021/06/24 00:45:26;;;;;;;;;6.00;6.00;;;;;;;;3558140;39;112301;-78
2021/06/24 00:47:53;;;;;;;;;7.00;6.33;;;;;;;;3558973;39;113625;-77
2021/06/24 00:50:20;;;;;;;;;8.67;6.67;;;;;;;;3558879;39;114070;-78
2021/06/24 00:52:47;;;;;;;;;6.00;6.00;;;;;;;;3558379;39;113083;-77
2021/06/24 00:55:14;;;;;;;;;6.00;6.00;;;;;;;;3558151;39;113322;-78
2021/06/24 00:57:41;;;;;;;;;7.00;7.00;;;;;;;;3557320;39;114450;-78
2021/06/24 01:00:09;;;;;;;;;6.00;5.00;;;;;;;;3553690;39;111960;-77
2021/06/24 01:02:37;;;;;;;;;6.67;6.33;;;;;;;;3558254;39;113299;-78
2021/06/24 01:05:04;;;;;;;;;3.00;3.00;;;;;;;;3561616;39;113921;-78
2021/06/24 01:07:32;;;;;;;;;9.00;9.00;;;;;;;;3558523;39;113735;-79
2021/06/24 01:10:01;;;;;;;;;8.33;7.00;;;;;;;;3559447;39;113113;-78
2021/06/24 01:12:27;;;;;;;;;6.00;6.00;;;;;;;;3559122;39;111888;-79
2021/06/24 01:14:54;;;;;;;;;8.00;6.00;;;;;;;;3558842;39;113722;-78
2021/06/24 01:17:20;;;;;;;;;6.33;6.33;;;;;;;;3558204;39;113478;-77
2021/06/24 01:19:47;;;;;;;;;7.25;7.25;;;;;;;;3559361;39;112097;-78
2021/06/24 01:22:14;;;;;;;;;8.00;6.00;;;;;;;;3558074;39;113523;-79
2021/06/24 01:24:42;;;;;;;;;5.00;5.00;;;;;;;;3559170;39;114285;-78
2021/06/24 01:27:09;;;;;;;;;8.25;6.00;;;;;;;;3558771;39;111906;-78
2021/06/24 01:29:35;;;;;;;;;5.25;5.25;;;;;;;;3559136;39;114139;-78
2021/06/24 01:32:02;;;;;;;;;6.33;5.33;;;;;;;;3557765;39;112135;-78
2021/06/24 01:34:29;;;;;;;;;7.25;7.25;;;;;;;;3559001;39;113761;-79
2021/06/24 01:36:55;;;;;;;;;8.50;7.00;;;;;;;;3557786;39;114291;-78
2021/06/24 01:39:22;;;;;;;;;13.75;9.50;;;;;;;;3558444;39;111842;-79
2021/06/24 01:41:57;;;;;;;;;10.25;9.25;;;;;;;;3558713;39;113265;-79
2021/06/24 01:44:30;;;;;;;;;7.25;7.00;;;;;;;;3558212;39;113995;-78
2021/06/24 01:46:57;;;;;;;;;9.50;7.25;;;;;;;;3557879;39;111986;-79
2021/06/24 01:49:23;;;;;;;;;8.00;6.75;;;;;;;;3561056;39;113481;-78
2021/06/24 01:51:50;;;;;;;;;7.75;7.75;;;;;;;;3559895;39;112223;-79
2021/06/24 01:54:17;;;;;;;;;6.75;5.25;;;;;;;;3559352;39;113605;-80
2021/06/24 01:56:44;;;;;;;;;6.25;6.00;;;;;;;;3559958;39;114248;-79
2021/06/24 01:59:12;;;;;;;;;6.00;6.00;;;;;;;;3558923;39;111774;-79
2021/06/24 02:01:39;;;;;;;;;8.00;8.00;;;;;;;;3560949;39;113236;-78
2021/06/24 02:04:05;;;;;;;;;7.00;7.00;;;;;;;;3558472;39;114026;-79
2021/06/24 02:06:32;;;;;;;;;8.75;8.00;;;;;;;;3560349;39;112064;-79
2021/06/24 02:08:58;;;;;;;;;6.75;5.75;;;;;;;;3561610;39;113176;-79
2021/06/24 02:11:25;;;;;;;;;8.50;7.50;;;;;;;;3558903;39;112368;-79
2021/06/24 02:13:52;;;;;;;;;9.25;8.00;;;;;;;;3559652;39;113211;-78
2021/06/24 02:16:19;;;;;;;;;9.00;8.25;;;;;;;;3559481;39;114184;-80
2021/06/24 02:18:46;;;;;;;;;7.50;6.50;;;;;;;;3559332;39;111840;-79
2021/06/24 02:21:13;;;;;;;;;7.25;7.25;;;;;;;;3560269;39;113248;-79
2021/06/24 02:23:39;;;;;;;;;6.00;6.00;;;;;;;;3558328;39;114012;-79
2021/06/24 02:26:06;;;;;;;;;7.75;7.75;;;;;;;;3558815;39;112142;-80
2021/06/24 02:28:32;;;;;;;;;7.25;7.25;;;;;;;;3560288;39;113590;-79
2021/06/24 02:30:59;;;;;;;;;9.75;8.25;;;;;;;;3561348;39;114492;-80
2021/06/24 02:33:27;;;;;;;;;7.50;7.00;;;;;;;;3559873;39;113815;-79
2021/06/24 02:35:56;;;;;;;;;8.00;8.00;;;;;;;;3558871;39;114097;-78
2021/06/24 02:38:24;;;;;;;;;9.25;7.75;;;;;;;;3559701;39;112521;-79
2021/06/24 02:40:52;;;;;;;;;7.75;7.75;;;;;;;;3559318;39;113109;-79
2021/06/24 02:43:18;;;;;;;;;8.00;7.50;;;;;;;;3559055;39;113997;-80
2021/06/24 02:45:45;;;;;;;;;9.25;8.00;;;;;;;;3560448;39;112936;-79
2021/06/24 02:48:11;;;;;;;;;7.75;7.75;;;;;;;;3558965;39;113325;-78
2021/06/24 02:50:39;;;;;;;;;6.50;6.00;;;;;;;;3560148;39;114258;-79
2021/06/24 02:53:06;;;;;;;;;7.75;6.50;;;;;;;;3558242;39;111796;-78
2021/06/24 02:55:33;;;;;;;;;8.25;8.25;;;;;;;;3558370;39;113934;-79
2021/06/24 02:58:00;;;;;;;;;8.50;8.50;;;;;;;;3559829;39;111835;-78
2021/06/24 03:00:27;;;;;;;;;7.25;7.25;;;;;;;;3558115;39;113336;-78
2021/06/24 03:02:54;;;;;;;;;9.00;9.00;;;;;;;;3558728;39;113845;-78
2021/06/24 03:05:21;;;;;;;;;8.25;8.00;;;;;;;;3559234;39;112167;-79
2021/06/24 03:07:49;;;;;;;;;9.25;8.00;;;;;;;;3559617;39;113293;-78
2021/06/24 03:10:17;;;;;;;;;8.00;8.00;;;;;;;;3558327;39;114393;-75
2021/06/24 03:12:44;;;;;;;;;9.50;7.00;;;;;;;;3559766;39;111868;-78
2021/06/24 03:15:11;;;;;;;;;9.00;8.50;;;;;;;;3560756;39;113258;-81
2021/06/24 03:17:38;;;;;;;;;10.25;7.00;;;;;;;;3558255;39;111979;-79
2021/06/24 03:20:05;;;;;;;;;8.75;7.25;;;;;;;;3556236;39;115096;-80
2021/06/24 03:22:31;;;;;;;;;9.00;9.00;;;;;;;;3560458;39;113822;-79
2021/06/24 03:25:02;;;;;;;;;8.25;7.75;;;;;;;;3561871;39;112489;-81
2021/06/24 03:27:29;;;;;;;;;8.25;7.75;;;;;;;;3562713;39;114405;-82
2021/06/24 03:29:55;;;;;;;;;10.75;9.00;;;;;;;;3560977;39;113904;-81
2021/06/24 03:32:22;;;;;;;;;8.00;7.25;;;;;;;;3562459;39;112237;-82
2021/06/24 03:34:48;;;;;;;;;9.50;9.00;;;;;;;;3561704;39;113318;-79
2021/06/24 03:37:15;;;;;;;;;9.75;9.75;;;;;;;;3563677;39;114191;-80
2021/06/24 03:39:43;;;;;;;;;9.25;8.00;;;;;;;;3562894;39;113456;-80
2021/06/24 03:42:12;;;;;;;;;9.00;9.00;;;;;;;;3558521;39;113878;-78
2021/06/24 03:44:38;;;;;;;;;8.50;6.75;;;;;;;;3560312;39;111788;-76
2021/06/24 03:47:05;;;;;;;;;9.00;9.00;;;;;;;;3556271;39;113430;-76
2021/06/24 03:49:31;;;;;;;;;10.00;9.75;;;;;;;;3559433;39;113910;-79
2021/06/24 03:51:58;;;;;;;;;10.75;9.00;;;;;;;;3558749;39;111844;-79
2021/06/24 03:54:24;;;;;;;;;9.75;9.75;;;;;;;;3559153;39;113493;-75
2021/06/24 03:56:51;;;;;;;;;10.75;9.75;;;;;;;;3555136;39;113103;-75
2021/06/24 03:59:19;;;;;;;;;9.75;8.50;;;;;;;;3561556;39;112315;-74
2021/06/24 04:01:45;;;;;;;;;9.75;8.75;;;;;;;;3559130;39;113826;-77
2021/06/24 04:04:12;;;;;;;;;9.00;9.00;;;;;;;;3558456;39;112043;-74
2021/06/24 04:06:39;;;;;;;;;9.50;9.50;;;;;;;;3559977;39;114886;-75
2021/06/24 04:09:07;;;;;;;;;11.00;8.25;;;;;;;;3557883;39;113952;-76
2021/06/24 04:11:33;;;;;;;;;11.25;10.50;;;;;;;;3557360;39;112029;-75
2021/06/24 04:14:00;;;;;;;;;11.25;11.00;;;;;;;;3559617;39;113360;-75
2021/06/24 04:16:28;;;;;;;;;9.25;8.00;;;;;;;;3558101;39;113896;-75
2021/06/24 04:18:54;;;;;;;;;8.00;7.25;;;;;;;;3562878;39;111761;-73
2021/06/24 04:21:21;;;;;;;;;8.25;8.00;;;;;;;;3558395;39;114071;-76
2021/06/24 04:23:48;;;;;;;;;9.50;9.50;;;;;;;;3559110;39;112136;-74
2021/06/24 04:26:14;;;;;;;;;9.25;9.25;;;;;;;;3558518;39;113347;-74
2021/06/24 04:28:41;;;;;;;;;9.50;6.75;;;;;;;;3559060;39;113844;-75
2021/06/24 04:31:10;;;;;;;;;10.00;9.50;;;;;;;;3558045;39;112031;-73
2021/06/24 04:33:38;;;;;;;;;10.50;9.25;;;;;;;;3556382;39;113313;-73
2021/06/24 04:36:05;;;;;;;;;26.50;20.75;;;;;;;;3555329;39;114095;-74
2021/06/24 04:38:32;;;;;;;;;8.00;8.00;;;;;;;;3559985;39;112961;-74
2021/06/24 04:40:58;;;;;;;;;9.50;7.25;;;;;;;;3557567;39;113664;-75
2021/06/24 04:43:25;;;;;;;;;8.00;7.00;;;;;;;;3557284;39;111995;-75
2021/06/24 04:45:52;;;;;;;;;7.25;7.25;;;;;;;;3555654;39;113551;-76
2021/06/24 04:48:19;;;;;;;;;8.75;7.50;;;;;;;;3555750;39;113934;-75
2021/06/24 04:50:47;;;;;;;;;8.50;8.00;;;;;;;;3558322;39;114412;-74
2021/06/24 04:53:13;;;;;;;;;11.25;8.00;;;;;;;;3554889;39;113278;-74
2021/06/24 04:55:40;;;;;;;;;8.00;8.00;;;;;;;;3555654;39;113898;-74
2021/06/24 04:58:07;;;;;;;;;9.50;9.00;;;;;;;;3557212;39;112378;-75
2021/06/24 05:00:35;;;;;;;;;8.00;7.50;;;;;;;;3555048;39;113659;-75
2021/06/24 05:03:03;;;;;;;;;9.50;7.75;;;;;;;;3557924;39;113863;-75
2021/06/24 05:05:30;;;;;;;;;8.75;8.75;;;;;;;;3556498;39;112379;-75
2021/06/24 05:08:06;;;;;;;;;9.25;9.25;;;;;;;;3555101;39;113296;-75
2021/06/24 05:10:33;;;;;;;;;8.75;8.75;;;;;;;;3554619;39;111895;-75
2021/06/24 05:12:59;;;;;;;;;9.50;9.00;;;;;;;;3555611;39;113309;-75
2021/06/24 05:15:26;;;;;;;;;9.75;9.00;;;;;;;;3557385;39;113895;-76
2021/06/24 05:17:52;;;;;;;;;8.00;8.00;;;;;;;;3559381;39;112343;-76
2021/06/24 05:20:20;;;;;;;;;9.25;8.50;;;;;;;;3555326;39;112435;-75
2021/06/24 05:22:46;;;;;;;;;11.00;9.00;;;;;;;;3557807;39;114340;-74
2021/06/24 05:25:15;;;;;;;;;14.25;11.00;;;;;;;;3562034;39;111923;-74
2021/06/24 05:27:41;;;;;;;;;9.75;9.00;;;;;;;;3557751;39;114382;-72
2021/06/24 05:30:09;;;;;;;;;8.00;8.00;;;;;;;;3559246;39;111923;-71
2021/06/24 05:32:35;;;;;;;;;9.50;9.00;;;;;;;;3557293;39;113299;-74
2021/06/24 05:35:02;;;;;;;;;10.75;9.75;;;;;;;;3556401;39;114011;-74
2021/06/24 05:37:28;;;;;;;;;9.25;8.75;;;;;;;;3557191;39;111878;-74
2021/06/24 05:39:55;;;;;;;;;9.75;9.50;;;;;;;;3558167;39;113267;-74
2021/06/24 05:42:23;;;;;;;;;10.00;9.75;;;;;;;;3557251;39;113931;-76
2021/06/24 05:44:49;;;;;;;;;10.00;10.00;;;;;;;;3557701;39;112232;-76
2021/06/24 05:47:16;;;;;;;;;10.50;10.50;;;;;;;;3560262;39;113442;-76
2021/06/24 05:49:43;;;;;;;;;10.00;9.00;;;;;;;;3557489;39;111750;-75
2021/06/24 05:52:09;;;;;;;;;14.00;12.75;;;;;;;;3558234;39;113605;-74
2021/06/24 05:54:39;;;;;;;;;8.50;8.50;;;;;;;;3556489;39;115270;-74
2021/06/24 05:57:06;;;;;;;;;12.25;12.25;;;;;;;;3553355;39;112526;-76
2021/06/24 05:59:34;;;;;;;;;13.00;13.00;;;;;;;;3553556;39;113427;-76
2021/06/24 06:02:00;;;;;;;;;8.75;8.00;;;;;;;;3557786;39;113959;-76
2021/06/24 06:04:27;;;;;;;;;10.50;9.50;;;;;;;;3556068;39;113536;-75
2021/06/24 06:06:53;;;;;;;;;11.25;10.25;;;;;;;;3557129;39;112672;-76
2021/06/24 06:09:20;;;;;;;;;13.00;12.00;;;;;;;;3559352;39;112215;-75
2021/06/24 06:11:46;;;;;;;;;12.25;12.25;;;;;;;;3558018;39;113417;-76
2021/06/24 06:14:13;;;;;;;;;8.50;8.00;;;;;;;;3557629;39;113978;-78
2021/06/24 06:16:44;;;;;;;;;9.50;9.50;;;;;;;;3555397;39;111852;-77
2021/06/24 06:19:11;;;;;;;;;11.25;10.25;;;;;;;;3558691;39;113805;-78
2021/06/24 06:21:37;;;;;;;;;8.50;7.25;;;;;;;;3554035;39;114149;-76
2021/06/24 06:24:04;;;;;;;;;11.00;10.50;;;;;;;;3557840;39;111919;-75
2021/06/24 06:26:31;;;;;;;;;9.00;7.50;;;;;;;;3555896;39;114680;-76
2021/06/24 06:29:03;;;;;;;;;9.25;9.25;;;;;;;;3560954;39;114006;-77
2021/06/24 06:31:30;;;;;;;;;8.00;8.00;;;;;;;;3557614;39;113448;-77
2021/06/24 06:33:57;;;;;;;;;12.25;11.00;;;;;;;;3557828;39;113903;-76
2021/06/24 06:36:24;;;;;;;;;9.50;8.75;;;;;;;;3558859;39;111766;-74
2021/06/24 06:38:51;;;;;;;;;14.00;14.00;;;;;;;;3559232;39;113337;-77
2021/06/24 06:41:17;;;;;;;;;8.00;8.00;;;;;;;;3559201;39;114195;-75
2021/06/24 06:43:44;;;;;;;;;12.00;11.00;;;;;;;;3558536;39;112715;-76
2021/06/24 06:46:10;;;;;;;;;10.75;9.00;;;;;;;;3559039;39;113244;-73
2021/06/24 06:48:37;;;;;;;;;7.50;7.00;;;;;;;;3559323;39;114376;-73
2021/06/24 06:51:05;;;;;;;;;8.25;7.25;;;;;;;;3560738;39;112042;-76
2021/06/24 06:53:32;;;;;;;;;9.00;8.50;;;;;;;;3556178;39;114110;-76
2021/06/24 06:55:58;;;;;;;;;10.25;10.25;;;;;;;;3560038;39;111905;-75
2021/06/24 06:58:25;;;;;;;;;7.25;7.25;;;;;;;;3558933;39;113550;-75
2021/06/24 07:00:52;;;;;;;;;6.50;6.50;;;;;;;;3559149;39;113873;-76
2021/06/24 07:03:18;;;;;;;;;9.00;8.00;;;;;;;;3559591;39;112355;-76
2021/06/24 07:05:45;;;;;;;;;15.25;12.25;;;;;;;;3559141;39;113357;-77
2021/06/24 07:08:13;;;;;;;;;11.25;11.25;;;;;;;;3559584;39;113923;-76
2021/06/24 07:10:39;;;;;;;;;9.33;8.00;;;;;;;;3558603;39;112583;-80
2021/06/24 07:13:06;;;;;;;;;7.67;7.00;;;;;;;;3562301;39;113630;-74
2021/06/24 07:15:33;;;;;;;;;8.00;8.00;;;;;;;;3556593;39;111748;-75
2021/06/24 07:17:59;;;;;;;;;8.00;8.00;;;;;;;;3559211;39;113489;-75
2021/06/24 07:20:26;;;;;;;;;7.33;7.33;;;;;;;;3557857;39;113906;-85
2021/06/24 07:22:52;;;;;;;;;9.00;9.00;;;;;;;;3559451;39;112790;-79
2021/06/24 07:25:22;;;;;;;;;8.33;8.33;;;;;;;;3560447;39;113432;-78
2021/06/24 07:27:48;;;;;;;;;9.00;8.00;;;;;;;;3559095;39;113838;-77
2021/06/24 07:30:15;;;;;;;;;7.67;7.00;;;;;;;;3560078;39;112175;-79
2021/06/24 07:32:42;;;;;;;;;8.00;7.00;;;;;;;;3558885;39;113558;-75
2021/06/24 07:35:09;;;;;;;;;14.67;11.33;;;;;;;;3560775;39;114123;-73
2021/06/24 07:37:36;;;;;;;;;8.33;8.00;;;;;;;;3558291;39;112412;-72
2021/06/24 07:40:03;;;;;;;;;11.00;9.33;;;;;;;;3592057;22;113783;-74
2021/06/24 07:42:31;;;;;;;;;17.33;13.33;;;;;;;;3543239;39;112267;-78
2021/06/24 07:44:58;;;;;;;;;35.67;30.67;;;;;;;;3546905;39;113406;-73
2021/06/24 07:47:24;;;;;;;;;16.67;14.33;;;;;;;;3547857;39;114370;-84
2021/06/24 07:49:51;;;;;;;;;12.67;10.00;;;;;;;;3548577;39;112127;-75
2021/06/24 07:52:18;;;;;;;;;8.00;8.00;;;;;;;;3547815;39;113230;-73
2021/06/24 07:54:44;;;;;;;;;10.33;8.67;;;;;;;;3548388;39;113931;-73
2021/06/24 07:57:11;;;;;;;;;10.67;8.33;;;;;;;;3549709;39;111917;-73
2021/06/24 07:59:39;;;;;;;;;10.33;9.33;;;;;;;;3547345;39;113799;-72
2021/06/24 08:02:06;;;;;;;;;12.00;10.00;;;;;;;;3546409;39;111986;-73
2021/06/24 08:04:33;;;;;;;;;15.67;11.00;;;;;;;;3546539;39;113044;-73
2021/06/24 08:06:59;;;;;;;;;9.00;9.00;;;;;;;;3546749;39;114218;-72
2021/06/24 08:09:26;;;;;;;;;12.67;11.33;;;;;;;;3546656;39;112134;-72
2021/06/24 08:11:53;;;;;;;;;10.00;8.00;;;;;;;;3547475;39;112910;-72
2021/06/24 08:14:21;;;;;;;;;11.67;11.67;;;;;;;;3547839;39;113733;-72
2021/06/24 08:16:49;;;;;;;;;11.00;11.00;;;;;;;;3551323;39;111850;-72
2021/06/24 08:19:15;;;;;;;;;14.00;10.00;;;;;;;;3548479;39;113668;-72
2021/06/24 08:21:42;;;;;;;;;8.67;8.33;;;;;;;;3548457;39;112122;-72
2021/06/24 08:24:09;;;;;;;;;10.67;10.67;;;;;;;;3546063;39;113137;-72
2021/06/24 08:26:35;;;;;;;;;10.67;10.67;;;;;;;;3544148;39;113120;-73
2021/06/24 08:29:02;;;;;;;;;10.00;10.00;;;;;;;;3548019;39;112162;-75
2021/06/24 08:31:28;;;;;;;;;9.67;8.67;;;;;;;;3549880;39;113453;-76
2021/06/24 08:33:56;;;;;;;;;12.00;12.00;;;;;;;;3549470;39;113955;-76
2021/06/24 08:36:23;;;;;;;;;11.00;10.00;;;;;;;;3548675;39;112051;-76
2021/06/24 08:38:49;;;;;;;;;9.67;9.67;;;;;;;;3550116;39;112284;-74
2021/06/24 08:41:17;;;;;;;;;11.33;10.33;;;;;;;;3548795;39;111971;-74
2021/06/24 08:43:44;;;;;;;;;7.00;7.00;;;;;;;;3548529;39;113285;-75
2021/06/24 08:46:11;;;;;;;;;6.00;6.00;;;;;;;;3548861;39;113974;-74
2021/06/24 08:48:39;;;;;;;;;8.00;8.00;;;;;;;;3547968;39;111875;-74
2021/06/24 08:51:07;;;;;;;;;8.00;7.00;;;;;;;;3549706;39;113388;-74
2021/06/24 08:53:34;;;;;;;;;8.00;7.00;;;;;;;;3547330;39;113940;-75
2021/06/24 08:56:01;;;;;;;;;9.67;9.00;;;;;;;;3547739;39;112099;-75
2021/06/24 08:58:28;;;;;;;;;8.00;7.00;;;;;;;;3549157;39;113312;-74
2021/06/24 09:00:55;;;;;;;;;6.67;6.67;;;;;;;;3549667;39;112993;-75
2021/06/24 09:03:22;;;;;;;;;8.75;7.75;;;;;;;;3548766;39;113268;-73
2021/06/24 09:05:53;;;;;;;;;7.50;7.50;;;;;;;;3548049;39;114260;-74
2021/06/24 09:08:41;;;;;;;;;11.00;10.33;;;;;;;;3548523;39;111826;-75
2021/06/24 09:11:08;;;;;;;;;8.00;7.00;;;;;;;;3548002;39;113238;-75
2021/06/24 09:13:35;;;;;;;;;9.00;9.00;;;;;;;;3548946;39;113902;-74
2021/06/24 09:16:05;;;;;;;;;8.67;8.00;;;;;;;;3547729;39;112156;-76
2021/06/24 09:18:32;;;;;;;;;9.00;9.00;;;;;;;;3547753;39;113323;-75
2021/06/24 09:20:58;;;;;;;;;10.00;9.33;;;;;;;;3548519;39;113972;-74
2021/06/24 09:23:25;;;;;;;;;8.67;7.33;;;;;;;;3550823;39;112205;-75
2021/06/24 09:26:07;;;;;;;;;10.67;9.67;;;;;;;;3548200;39;114278;-74
2021/06/24 09:28:37;;;;;;;;;8.00;8.00;;;;;;;;3547675;39;111779;-74
2021/06/24 09:31:04;;;;;;;;;8.67;8.33;;;;;;;;3547631;39;113461;-75
2021/06/24 09:33:38;;;;;;;;;8.00;7.67;;;;;;;;3546813;39;114364;-74
2021/06/24 09:36:05;;;;;;;;;8.33;8.00;;;;;;;;3547599;39;111883;-74
2021/06/24 09:38:41;;;;;;;;;9.00;8.33;;;;;;;;3547626;39;114060;-74
2021/06/24 09:41:14;;;;;;;;;11.00;11.00;;;;;;;;3547383;39;114339;-74
2021/06/24 09:43:42;;;;;;;;;9.00;9.00;;;;;;;;3548883;39;112289;-74
2021/06/24 09:46:11;;;;;;;;;8.00;6.00;;;;;;;;3549989;39;113208;-74
2021/06/24 09:48:39;;;;;;;;;9.33;8.33;;;;;;;;3549072;39;111963;-74
2021/06/24 09:51:09;;;;;;;;;9.67;9.67;;;;;;;;3547391;39;113304;-74
2021/06/24 09:53:47;;;;;;;;;9.00;9.00;;;;;;;;3548720;39;113982;-77
2021/06/24 09:56:22;;;;;;;;;8.00;8.00;;;;;;;;3548124;39;112327;-75
2021/06/24 09:58:50;;;;;;;;;6.00;6.00;;;;;;;;3548102;39;113155;-75
2021/06/24 10:01:26;;;;;;;;;8.00;8.00;;;;;;;;3547760;39;113851;-74
2021/06/24 10:03:53;;;;;;;;;8.00;6.67;;;;;;;;3547764;39;111861;-73
2021/06/24 10:06:20;;;;;;;;;10.33;9.33;;;;;;;;3547932;39;113255;-75
2021/06/24 10:08:47;;;;;;;;;6.33;6.33;;;;;;;;3549322;39;114218;-74
2021/06/24 10:11:13;;;;;;;;;7.00;7.00;;;;;;;;3548278;39;113818;-75
2021/06/24 10:13:41;;;;;;;;;6.67;6.67;;;;;;;;3546602;39;113880;-74
2021/06/24 10:16:08;;;;;;;;;7.00;7.00;;;;;;;;3551971;39;114438;-73
2021/06/24 10:18:36;;;;;;;;;7.00;7.00;;;;;;;;3551402;39;113290;-73
2021/06/24 10:21:03;;;;;;;;;6.00;6.00;;;;;;;;3548592;39;113852;-74
2021/06/24 10:23:30;;;;;;;;;6.33;6.33;;;;;;;;3547749;39;112475;-74
2021/06/24 10:25:57;;;;;;;;;11.00;8.00;;;;;;;;3548671;39;113365;-75
2021/06/24 10:28:24;;;;;;;;;7.00;7.00;;;;;;;;3551853;39;113883;-74
2021/06/24 10:30:52;;;;;;;;;7.00;7.00;;;;;;;;3549268;39;113595;-73
2021/06/24 10:33:18;;;;;;;;;6.33;6.33;;;;;;;;3549120;39;113836;-73
2021/06/24 10:35:47;;;;;;;;;9.00;8.00;;;;;;;;3549573;39;113034;-73
2021/06/24 10:38:14;;;;;;;;;6.33;6.00;;;;;;;;3548854;39;113306;-78
2021/06/24 10:40:41;;;;;;;;;7.00;6.00;;;;;;;;3549835;39;113905;-75
2021/06/24 10:43:09;;;;;;;;;11.33;8.00;;;;;;;;3548646;39;112064;-76
2021/06/24 10:45:35;;;;;;;;;8.33;8.00;;;;;;;;3550230;39;113491;-71
2021/06/24 10:48:17;;;;;;;;;10.67;9.67;;;;;;;;3547629;39;114052;-72
2021/06/24 10:50:45;;;;;;;;;8.00;7.33;;;;;;;;3550875;39;112873;-72
2021/06/24 10:53:30;;;;;;;;;8.33;8.33;;;;;;;;3549236;39;113927;-72
2021/06/24 10:55:57;;;;;;;;;6.00;6.00;;;;;;;;3545722;39;112354;-73
2021/06/24 10:58:35;;;;;;;;;7.00;4.67;;;;;;;;3548293;39;113865;-71
2021/06/24 11:01:02;;;;;;;;;11.67;10.67;;;;;;;;3547954;39;114078;-72
2021/06/24 11:03:37;;;;;;;;;9.00;9.00;;;;;;;;3548507;39;112089;-70
2021/06/24 11:06:10;;;;;;;;;9.00;8.00;;;;;;;;3549365;39;113610;-72
2021/06/24 11:08:39;;;;;;;;;8.00;6.33;;;;;;;;3548187;39;113809;-73
2021/06/24 11:11:07;;;;;;;;;8.33;7.33;;;;;;;;3547310;39;112063;-71
2021/06/24 11:13:44;;;;;;;;;8.00;7.00;;;;;;;;3550446;39;113846;-71
2021/06/24 11:16:25;;;;;;;;;7.33;6.67;;;;;;;;3543269;39;111993;-71
2021/06/24 11:18:55;;;;;;;;;8.33;8.33;;;;;;;;3546846;39;113676;-72
2021/06/24 11:21:42;;;;;;;;;10.67;10.67;;;;;;;;3548028;39;113855;-81
2021/06/24 11:24:17;;;;;;;;;7.00;6.00;;;;;;;;3549087;39;111978;-76
2021/06/24 11:26:45;;;;;;;;;11.00;10.00;;;;;;;;3549308;39;113150;-81
2021/06/24 11:29:24;;;;;;;;;5.67;5.67;;;;;;;;3550318;39;114012;-75
2021/06/24 11:31:53;;;;;;;;;12.00;12.00;;;;;;;;3550901;39;112606;-76
2021/06/24 11:34:30;;;;;;;;;5.67;5.00;;;;;;;;3547661;39;112475;-75
2021/06/24 11:36:58;;;;;;;;;6.67;5.33;;;;;;;;3546069;39;112970;-76
2021/06/24 11:39:26;;;;;;;;;6.67;6.67;;;;;;;;3551111;39;113639;-75
2021/06/24 11:41:53;;;;;;;;;5.67;5.67;;;;;;;;3548680;39;113921;-76
2021/06/24 11:44:24;;;;;;;;;15.33;14.00;;;;;;;;3548669;39;112312;-76
2021/06/24 13:28:58;;;;;;;;;6.00;5.67;;;;;;;;3504290;39;3138498;-74
2021/06/24 13:31:26;;;;;;;;;7.00;6.00;;;;;;;;3578583;39;114088;-74
2021/06/24 13:33:52;;;;;;;;;9.00;6.33;;;;;;;;3577588;39;112162;-75
2021/06/24 13:36:20;;;;;;;;;6.00;6.00;;;;;;;;3574869;39;113270;-75
2021/06/24 13:38:58;;;;;;;;;5.00;5.00;;;;;;;;3575091;39;113755;-75
2021/06/24 13:41:25;;;;;;;;;5.33;5.33;;;;;;;;3575060;39;111895;-75
2021/06/24 13:44:13;;;;;;;;;7.67;7.67;;;;;;;;3578252;39;113192;-76
2021/06/24 13:46:41;;;;;;;;;6.33;6.00;;;;;;;;3578301;39;114013;-76
2021/06/24 13:49:08;;;;;;;;;5.00;5.00;;;;;;;;3581794;39;112388;-83
2021/06/24 13:51:35;;;;;;;;;6.33;5.00;;;;;;;;3581340;39;114285;-80
2021/06/24 13:54:03;;;;;;;;;7.67;6.67;;;;;;;;3580910;39;112747;-81
2021/06/24 13:56:29;;;;;;;;;3.00;2.67;;;;;;;;3580786;39;114285;-76
2021/06/24 13:58:56;;;;;;;;;4.67;4.00;;;;;;;;3580671;39;113669;-84
2021/06/24 14:01:25;;;;;;;;;5.67;5.00;;;;;;;;3579672;39;112466;-74
2021/06/24 14:03:51;;;;;;;;;3.33;3.33;;;;;;;;3581219;39;112439;-78
2021/06/24 14:06:18;;;;;;;;;6.33;6.00;;;;;;;;3579728;39;113818;-81
2021/06/24 14:08:45;;;;;;;;;4.00;4.00;;;;;;;;3579957;39;112290;-80
2021/06/24 14:11:13;;;;;;;;;4.00;4.00;;;;;;;;3582296;39;113757;-83
2021/06/24 14:13:40;;;;;;;;;4.00;4.00;;;;;;;;3580959;39;112349;-78
2021/06/24 14:16:08;;;;;;;;;5.33;4.33;;;;;;;;3579805;39;113265;-78
2021/06/24 14:18:36;;;;;;;;;4.00;4.00;;;;;;;;3578485;39;114078;-77
2021/06/24 14:21:04;;;;;;;;;3.33;3.00;;;;;;;;3580900;39;111989;-79
2021/06/24 14:23:30;;;;;;;;;3.00;3.00;;;;;;;;3581010;39;113517;-78
2021/06/24 14:25:58;;;;;;;;;3.00;3.00;;;;;;;;3580605;39;114054;-78
2021/06/24 14:28:25;;;;;;;;;4.33;4.33;;;;;;;;3580594;39;111955;-79
2021/06/24 14:30:52;;;;;;;;;3.67;3.67;;;;;;;;3580483;39;113236;-78
2021/06/24 14:33:18;;;;;;;;;3.33;3.33;;;;;;;;3578121;39;112991;-81
2021/06/24 14:35:46;;;;;;;;;3.00;3.00;;;;;;;;3577374;39;114189;-78
2021/06/24 14:38:13;;;;;;;;;3.00;3.00;;;;;;;;3577265;39;114385;-78
2021/06/24 14:40:39;;;;;;;;;3.00;3.00;;;;;;;;3573882;39;111917;-75
2021/06/24 14:43:06;;;;;;;;;6.33;4.67;;;;;;;;3570588;39;113185;-78
2021/06/24 14:45:33;;;;;;;;;4.33;4.00;;;;;;;;3572604;39;114612;-79
2021/06/24 14:47:59;;;;;;;;;5.00;3.33;;;;;;;;3574090;39;113008;-78
2021/06/24 14:50:26;;;;;;;;;3.00;3.00;;;;;;;;3574112;39;113154;-78
2021/06/24 14:52:54;;;;;;;;;5.00;4.00;;;;;;;;3573366;39;114245;-79
2021/06/24 14:55:21;;;;;;;;;4.33;4.33;;;;;;;;3574227;39;111952;-79
2021/06/24 14:57:47;;;;;;;;;3.00;3.00;;;;;;;;3568368;39;114342;-80
2021/06/24 15:00:14;;;;;;;;;3.00;3.00;;;;;;;;3569859;39;111805;-81
2021/06/24 15:02:41;;;;;;;;;4.00;4.00;;;;;;;;3569143;39;113543;-75
2021/06/24 15:05:09;;;;;;;;;4.67;4.00;;;;;;;;3569593;39;113970;-75
2021/06/24 15:07:36;;;;;;;;;3.00;3.00;;;;;;;;3568653;39;111856;-81
2021/06/24 15:10:04;;;;;;;;;4.00;4.00;;;;;;;;3570961;39;113672;-85
2021/06/24 15:12:30;;;;;;;;;5.00;3.67;;;;;;;;3568226;39;113429;-79
2021/06/24 15:14:57;;;;;;;;;4.00;4.00;;;;;;;;3570379;39;113049;-79
2021/06/24 15:17:24;;;;;;;;;7.00;3.00;;;;;;;;3571209;39;113243;-75
2021/06/24 15:19:50;;;;;;;;;3.67;3.67;;;;;;;;3569351;39;112830;-77
2021/06/24 15:22:17;;;;;;;;;4.00;4.00;;;;;;;;3571098;39;113725;-76
2021/06/24 15:24:43;;;;;;;;;3.33;3.33;;;;;;;;3569835;39;113700;-75
2021/06/24 15:27:13;;;;;;;;;4.00;3.00;;;;;;;;3569762;39;111908;-74
2021/06/24 15:29:39;;;;;;;;;5.00;4.00;;;;;;;;3570754;39;112563;-78
2021/06/24 15:32:06;;;;;;;;;8.33;6.67;;;;;;;;3568614;39;113852;-86
2021/06/24 15:34:33;;;;;;;;;3.00;3.00;;;;;;;;3567864;39;111851;-76
2021/06/24 15:37:00;;;;;;;;;5.67;4.33;;;;;;;;3569882;39;113181;-85
2021/06/24 15:39:26;;;;;;;;;4.00;2.33;;;;;;;;3570669;39;111842;-76
2021/06/24 15:41:53;;;;;;;;;3.33;3.33;;;;;;;;3568535;39;113219;-81
2021/06/24 15:44:22;;;;;;;;;3.33;3.00;;;;;;;;3568732;39;114104;-75
2021/06/24 15:46:48;;;;;;;;;5.67;4.00;;;;;;;;3567476;39;112420;-75
2021/06/24 15:49:15;;;;;;;;;3.33;3.33;;;;;;;;3568798;39;113981;-75
2021/06/24 15:51:42;;;;;;;;;3.00;3.00;;;;;;;;3569224;39;114053;-78
2021/06/24 15:54:09;;;;;;;;;3.00;3.00;;;;;;;;3566065;39;112096;-74
2021/06/24 15:56:35;;;;;;;;;3.00;3.00;;;;;;;;3570320;39;113145;-74
2021/06/24 15:59:02;;;;;;;;;3.00;3.00;;;;;;;;3570793;39;113857;-77
2021/06/24 16:01:30;;;;;;;;;3.00;2.00;;;;;;;;3572771;39;113472;-74
2021/06/24 16:03:57;;;;;;;;;3.00;3.00;;;;;;;;3570505;39;114011;-73
2021/06/24 16:06:23;;;;;;;;;1.00;1.00;;;;;;;;3570204;39;111872;-72
2021/06/24 16:08:50;;;;;;;;;2.00;2.00;;;;;;;;3569112;39;113857;-73
2021/06/24 16:11:16;;;;;;;;;1.33;1.33;;;;;;;;3570666;39;113850;-74